CST,Max TemperatureF,Mean TemperatureF,Min TemperatureF,Max Dew PointF,MeanDew PointF,Min DewpointF,Max Humidity, Mean Humidity, Min Humidity, Max Sea Level PressureIn, Mean Sea Level PressureIn, Min Sea Level PressureIn, Max VisibilityMiles, Mean VisibilityMiles, Min VisibilityMiles, Max Wind SpeedMPH, Mean Wind SpeedMPH, Max Gust SpeedMPH,PrecipitationIn, CloudCover, Events, WindDirDegrees
2014-2-1,72,61,49,54,49,43,80,67,53,30.04,29.98,29.93,10,10,9,24,13,29,0.00,7,,168
2014-2-2,63,49,34,58,37,31,96,87,78,30.16,30.03,29.92,10,4,1,29,16,35,1.47,8,Rain-Snow-Thunderstorm,9
2014-2-3,35,33,31,31,29,28,92,87,82,30.32,30.24,30.15,10,5,2,23,13,31,0.01,8,Rain-Snow,18
2014-2-4,37,35,33,36,34,30,100,95,89,30.17,29.98,29.85,10,4,1,20,9,24,1.10,8,Rain-Thunderstorm,23
2014-2-5,39,35,30,34,28,21,92,81,69,30.50,30.33,30.08,10,9,7,22,13,28,0.00,8,,328
2014-2-6,30,28,25,23,21,19,81,75,69,30.56,30.49,30.44,10,8,6,22,14,26,T,8,,11
2014-2-7,32,28,24,27,23,19,92,82,72,30.49,30.39,30.31,10,7,2,14,9,16,0.08,8,Rain-Snow,30
2014-2-8,40,35,30,34,30,27,92,86,79,30.32,30.25,30.14,7,5,2,10,4,10,0.01,7,Rain,45
2014-2-9,43,39,35,36,35,33,92,84,76,30.23,30.18,30.13,9,5,2,17,9,21,T,8,Rain,19
2014-2-10,35,32,29,32,28,24,96,84,72,30.32,30.26,30.19,8,5,2,22,15,26,T,8,,18
2014-2-11,31,28,24,25,23,18,85,77,69,30.38,30.28,30.18,9,7,2,22,15,26,0.26,8,Rain-Snow,13
2014-2-12,33,31,28,28,26,22,85,80,75,30.21,30.09,30.00,9,6,2,18,8,22,0.05,8,Rain,348
2014-2-13,50,35,20,34,28,19,92,69,46,30.10,30.02,29.95,10,8,5,14,5,17,0.00,1,,219
2014-2-14,58,46,33,49,40,31,92,72,52,30.09,29.88,29.73,10,9,6,21,11,28,0.00,2,,224
2014-2-15,49,40,30,36,30,26,92,71,50,30.30,30.18,30.12,10,10,8,18,6,25,0.00,0,,59
2014-2-16,63,48,33,42,37,29,89,66,43,30.18,30.13,30.08,10,10,10,13,6,16,0.00,0,,75
2014-2-17,73,58,43,59,49,39,86,69,51,30.14,30.05,29.99,10,9,7,22,9,28,0.00,5,,185
2014-2-18,71,55,39,61,53,37,92,79,66,30.14,30.04,29.95,10,8,7,18,9,23,0.00,4,,171
2014-2-19,71,64,56,61,59,55,93,81,68,30.05,29.96,29.85,10,8,4,18,8,22,0.00,5,,197
2014-2-20,78,63,47,63,57,35,87,71,54,30.07,29.82,29.73,10,8,6,32,19,40,0.06,6,Rain-Thunderstorm,199
2014-2-21,61,48,34,37,30,21,82,52,22,30.19,30.12,30.07,10,7,2,14,5,17,0.00,0,,204
2014-2-22,67,53,39,38,34,28,85,55,24,30.15,30.07,29.98,10,9,7,17,8,23,0.00,0,,164
2014-2-23,72,57,41,55,43,36,76,67,57,30.16,30.02,29.97,10,10,8,23,9,29,0.00,4,,149
2014-2-24,57,47,36,36,32,28,82,64,46,30.26,30.19,30.11,10,10,10,18,11,24,0.00,2,,23
2014-2-25,58,49,40,40,36,32,89,68,47,30.19,30.12,30.05,10,9,4,22,12,26,0.18,7,Rain-Thunderstorm,17
2014-2-26,40,33,25,35,25,17,85,69,52,30.25,30.18,30.11,10,9,4,25,14,32,0.23,4,Rain,11
2014-2-27,49,36,22,27,21,15,88,59,29,30.19,30.13,30.06,10,10,9,10,4,14,0.00,0,,322
2014-2-28,56,43,30,39,31,24,82,57,32,30.08,30.03,29.96,10,10,8,18,7,23,0.01,4,Rain,129